Tropical Cyclones
[Index]
Main Index Home Page Stock Weather Photos Extreme Storms Discussion Storm News and Storm Chasing Reports Tropical Cyclones / Hurricanes / Typhoons Weather Data and Links Wild Fires / Bushfires Weather Observation Techniques Weather Picture Catalogue Tornado Pictures and Reports Stock Video Footage and DVDs for sale
Season 1986-1987 Tropical Cyclone ZUMAN Track Map
Season 1986-1987 Summaries: [BoM-AU] [JTWC-AU] [JTWC-SIO] [JTWC-SPAC] [JTWC-SH]
<<- Previous TC | JTWC 1986-1987 Season | Next TC ->>

click for intensity scale information  Lat/long Grid: Show Hide

 Date Labels: Show Hide

Joint Typhoon Warning Centre Cyclone Data

Name: ZUMAN

19 Apr 1987 18:00 UTC to 26 Apr 1987 12:00 UTC

    date/time    lat    long     hPa   cat  kts
1987-04-19 18    9.5   179.1                  25          
1987-04-20 00    9.6   179.9W                 25          
1987-04-20 06    9.4   178.9W                 25          
1987-04-20 12    9.7   178.0W                 25          
1987-04-20 18   10.7   178.2W                 30          
1987-04-21 00   11.2   177.4W                 30          
1987-04-21 06   11.2   176.4W                 30          
1987-04-21 12   11.0   175.4W                 30          
1987-04-21 18   10.7   174.5W                 30          
1987-04-22 00   10.4   173.5W                 30          
1987-04-22 06   10.4   172.5W                 30          
1987-04-22 12   10.7   171.6W                 30          
1987-04-22 18   11.2   170.9W                 30          
1987-04-23 00   11.9   170.4W                 35          
1987-04-23 06   12.8   169.9W           1     40          
1987-04-23 12   13.6   169.5W           1     45          
1987-04-23 18   14.4   169.1W           1     50          
1987-04-24 00   15.3   168.7W           2     55          
1987-04-24 06   16.1   168.3W           2     55          
1987-04-24 12   17.0   167.9W           1     50          
1987-04-24 18   18.0   167.4W           1     50          
1987-04-25 00   19.0   166.9W           1     45          
1987-04-25 06   20.2   166.0W           1     40          
1987-04-25 12   21.5   164.7W                 35          
1987-04-25 18   22.8   163.1W                 35          
1987-04-26 00   24.0   161.4W                 30          
1987-04-26 06   25.0   159.6W                 30          
1987-04-26 12   26.2   157.8W                 25          
Winds are 1-min average.

Tropical cyclone tracks developed by Michael Bath using data from the Joint Typhoon Warning Centre Best Tracks and Google Maps.


[Australian Severe Weather index] [Copyright Notice] [Email Contacts] [Search This Site] [Privacy Policy]
Document: tropical_cyclone_zuman.htm Updated: 18 September 2016